createdAt,value
2022-12-01T00:00:35.184Z,15.10
2022-12-01T00:03:22.217Z,12.60
2022-12-01T00:06:15.645Z,15.80
2022-12-01T00:09:20.727Z,16.40
2022-12-01T00:12:07.432Z,14.80
2022-12-01T00:15:00.900Z,16.10
2022-12-01T00:17:48.532Z,15.70
2022-12-01T00:20:34.797Z,14.50
2022-12-01T00:23:22.052Z,14.90
2022-12-01T00:26:08.452Z,15.70
2022-12-01T00:28:56.999Z,14.30
2022-12-01T00:31:43.404Z,12.20
2022-12-01T00:34:29.993Z,11.70
2022-12-01T00:37:16.412Z,6.20
2022-12-01T00:40:04.143Z,14.10
2022-12-01T00:42:51.247Z,15.10
2022-12-01T00:45:37.950Z,12.60
2022-12-01T00:48:24.574Z,15.00
2022-12-01T00:51:11.297Z,10.80
2022-12-01T00:53:58.194Z,8.00
2022-12-01T00:56:44.904Z,14.40
2022-12-01T00:59:31.513Z,13.70
2022-12-01T01:02:18.162Z,13.70
2022-12-01T01:05:05.424Z,9.10
2022-12-01T01:07:52.292Z,13.10
2022-12-01T01:10:43.260Z,11.50
2022-12-01T01:13:29.765Z,13.90
2022-12-01T01:16:20.708Z,14.50
2022-12-01T01:19:07.380Z,13.40
2022-12-01T01:21:53.694Z,11.60
2022-12-01T01:24:40.287Z,11.30
2022-12-01T01:27:26.887Z,6.80
2022-12-01T01:30:13.783Z,4.50
2022-12-01T01:33:00.611Z,12.50
2022-12-01T01:35:47.320Z,13.30
2022-12-01T01:38:33.794Z,8.80
2022-12-01T01:41:20.939Z,11.00
2022-12-01T01:44:45.762Z,11.50
2022-12-01T01:47:36.222Z,9.20
2022-12-01T01:50:24.593Z,11.80
2022-12-01T01:53:13.032Z,12.30
2022-12-01T01:55:59.536Z,12.30
2022-12-01T01:58:45.779Z,9.60
2022-12-01T02:01:32.800Z,13.40
2022-12-01T02:04:19.869Z,13.40
2022-12-01T02:07:07.679Z,13.80
2022-12-01T02:09:54.196Z,13.30
2022-12-01T02:12:49.790Z,13.70
2022-12-01T02:15:37.246Z,10.50
2022-12-01T02:18:36.139Z,12.20
2022-12-01T02:21:41.276Z,14.50
2022-12-01T02:24:49.589Z,11.60
2022-12-01T02:27:53.909Z,9.20
2022-12-01T02:31:03.892Z,6.70
2022-12-01T02:33:56.077Z,10.70
2022-12-01T02:36:47.526Z,9.00
2022-12-01T02:43:11.921Z,11.90
2022-12-01T02:46:21.410Z,12.30
2022-12-01T02:49:14.181Z,12.10
2022-12-01T02:52:00.919Z,12.10
2022-12-01T02:54:48.457Z,12.30
2022-12-01T02:57:35.377Z,12.50
2022-12-01T03:00:21.629Z,12.00
2022-12-01T03:03:35.230Z,10.40
2022-12-01T03:06:36.756Z,11.70
2022-12-01T03:09:47.065Z,10.60
2022-12-01T03:12:58.926Z,11.20
2022-12-01T03:16:00.988Z,12.00
2022-12-01T03:18:53.880Z,11.50
2022-12-01T03:21:43.013Z,10.10
2022-12-01T03:24:31.804Z,11.40
2022-12-01T03:27:19.614Z,11.50
2022-12-01T03:30:10.340Z,11.30
2022-12-01T03:33:01.258Z,13.40
2022-12-01T03:36:00.124Z,12.40
2022-12-01T03:38:49.168Z,11.60
2022-12-01T03:41:41.679Z,13.10
2022-12-01T03:44:34.176Z,11.70
2022-12-01T03:47:25.290Z,13.40
2022-12-01T03:50:14.205Z,13.40
2022-12-01T03:53:13.248Z,14.20
2022-12-01T03:56:02.802Z,14.60
2022-12-01T03:58:49.304Z,14.20
2022-12-01T04:01:36.085Z,13.80
2022-12-01T04:04:23.027Z,13.50
2022-12-01T04:07:13.562Z,14.90
2022-12-01T04:09:59.921Z,15.50
2022-12-01T04:12:46.686Z,12.60
2022-12-01T04:15:33.444Z,13.80
2022-12-01T04:18:20.599Z,14.60
2022-12-01T04:21:07.207Z,14.30
2022-12-01T04:24:02.511Z,13.10
2022-12-01T04:26:49.181Z,13.50
2022-12-01T04:29:35.995Z,12.80
2022-12-01T04:32:22.600Z,11.90
2022-12-01T04:35:10.964Z,13.90
2022-12-01T04:37:57.249Z,13.00
2022-12-01T04:40:43.882Z,13.20
2022-12-01T04:43:30.870Z,12.20
2022-12-01T04:46:18.932Z,14.00
2022-12-01T04:49:05.313Z,13.90
2022-12-01T04:51:52.438Z,15.90
2022-12-01T04:54:38.913Z,16.60
2022-12-01T04:57:25.637Z,14.50
2022-12-01T05:00:13.446Z,15.90
2022-12-01T05:03:00.489Z,16.50
2022-12-01T05:05:46.915Z,16.10
2022-12-01T05:08:34.377Z,15.70
2022-12-01T05:11:20.691Z,16.30
2022-12-01T05:14:07.628Z,15.10
2022-12-01T05:16:55.324Z,16.00
2022-12-01T05:20:00.738Z,15.50
2022-12-01T05:23:04.867Z,14.40
2022-12-01T05:25:52.758Z,14.60
2022-12-01T05:28:40.918Z,14.20
2022-12-01T05:31:27.894Z,15.50
2022-12-01T05:34:14.924Z,14.70
2022-12-01T05:37:01.433Z,12.60
2022-12-01T05:39:48.577Z,15.40
2022-12-01T05:42:35.259Z,15.50
2022-12-01T05:45:22.173Z,15.60
2022-12-01T05:48:09.088Z,15.90
2022-12-01T05:50:55.509Z,14.90
2022-12-01T05:53:42.099Z,16.60
2022-12-01T05:56:28.702Z,17.70
2022-12-01T05:59:15.505Z,13.80
2022-12-01T06:02:02.431Z,17.40
2022-12-01T06:04:49.843Z,16.20
2022-12-01T06:07:36.310Z,16.10
2022-12-01T06:10:22.749Z,17.20
2022-12-01T06:13:09.357Z,16.00
2022-12-01T06:15:59.497Z,16.80
2022-12-01T06:18:46.456Z,16.00
2022-12-01T06:21:33.233Z,16.70
2022-12-01T06:24:20.081Z,15.70
2022-12-01T06:27:06.513Z,16.10
2022-12-01T06:29:53.384Z,17.00
2022-12-01T06:32:39.932Z,16.20
2022-12-01T06:35:26.224Z,15.30
2022-12-01T06:38:13.209Z,12.60
2022-12-01T06:41:00.409Z,15.90
2022-12-01T06:43:46.981Z,16.60
2022-12-01T06:46:33.385Z,17.00
2022-12-01T06:49:20.505Z,17.50
2022-12-01T06:52:07.035Z,17.50
2022-12-01T06:54:53.860Z,16.60
2022-12-01T06:57:41.088Z,18.10
2022-12-01T07:00:27.578Z,17.10
2022-12-01T07:03:14.516Z,16.80
2022-12-01T07:06:01.644Z,18.60
2022-12-01T07:08:48.263Z,18.60
2022-12-01T07:11:36.586Z,14.90
2022-12-01T07:14:24.468Z,15.80
2022-12-01T07:17:11.175Z,17.40
2022-12-01T07:19:58.211Z,15.00
2022-12-01T07:22:45.043Z,16.10
2022-12-01T07:25:32.044Z,16.20
2022-12-01T07:28:18.360Z,17.20
2022-12-01T07:31:09.367Z,16.90
2022-12-01T07:33:55.983Z,15.90
2022-12-01T07:36:42.581Z,13.70
2022-12-01T07:39:29.341Z,17.40
2022-12-01T07:42:16.201Z,16.90
2022-12-01T07:45:03.026Z,18.30
2022-12-01T07:47:53.306Z,17.70
2022-12-01T07:50:40.118Z,16.90
2022-12-01T07:53:26.929Z,18.60
2022-12-01T07:56:13.842Z,16.20
2022-12-01T07:59:00.247Z,19.60
2022-12-01T08:01:46.686Z,18.10
2022-12-01T08:04:33.246Z,15.30
2022-12-01T08:07:19.927Z,15.70
2022-12-01T08:10:06.737Z,16.20
2022-12-01T08:12:53.476Z,16.80
2022-12-01T08:15:39.840Z,15.70
2022-12-01T08:18:26.565Z,16.30
2022-12-01T08:21:15.030Z,16.70
2022-12-01T08:24:01.522Z,16.00
2022-12-01T08:26:48.054Z,15.40
2022-12-01T08:29:35.672Z,16.50
2022-12-01T08:32:22.098Z,15.00
2022-12-01T08:35:09.291Z,15.50
2022-12-01T08:37:55.894Z,16.00
2022-12-01T08:40:42.200Z,17.50
2022-12-01T08:43:56.104Z,16.60
2022-12-01T08:46:36.226Z,17.60
2022-12-01T08:49:23.112Z,16.80
2022-12-01T08:52:09.464Z,15.50
2022-12-01T08:54:56.029Z,16.60
2022-12-01T08:57:42.822Z,16.50
2022-12-01T09:00:29.540Z,15.40
2022-12-01T09:03:16.075Z,16.20
2022-12-01T09:06:10.771Z,14.70
2022-12-01T09:09:00.305Z,15.90
2022-12-01T09:11:47.424Z,15.90
2022-12-01T09:14:40.190Z,16.40
2022-12-01T09:17:26.967Z,15.80
2022-12-01T09:20:13.777Z,15.80
2022-12-01T09:23:00.587Z,14.90
2022-12-01T09:25:48.131Z,14.70
2022-12-01T09:28:35.352Z,18.20
2022-12-01T09:31:23.745Z,17.30
2022-12-01T09:34:13.884Z,16.60
2022-12-01T09:37:00.716Z,18.70
2022-12-01T09:39:47.772Z,16.00
2022-12-01T09:42:35.683Z,17.80
2022-12-01T09:45:27.063Z,18.40
2022-12-01T09:48:28.007Z,19.10
2022-12-01T09:51:21.071Z,17.60
2022-12-01T09:54:08.603Z,14.80
2022-12-01T09:56:55.493Z,14.10
2022-12-01T09:59:43.587Z,17.50
2022-12-01T10:02:39.554Z,15.40
2022-12-01T10:05:29.747Z,16.90
2022-12-01T10:08:22.491Z,17.80
2022-12-01T10:11:27.038Z,16.40
2022-12-01T10:14:20.046Z,16.60
2022-12-01T10:17:32.407Z,16.70
2022-12-01T10:20:24.403Z,18.40
2022-12-01T10:23:32.943Z,16.70
2022-12-01T10:26:38.401Z,17.20
2022-12-01T10:29:28.858Z,17.40
2022-12-01T10:32:20.010Z,16.40
2022-12-01T10:35:11.080Z,16.00
2022-12-01T10:38:00.368Z,16.60
2022-12-01T10:40:47.075Z,15.20
2022-12-01T10:43:44.634Z,16.00
2022-12-01T10:46:45.094Z,16.70
2022-12-01T10:49:36.823Z,17.10
2022-12-01T10:52:39.750Z,15.50
2022-12-01T10:55:32.047Z,16.30
2022-12-01T10:58:19.277Z,17.80
2022-12-01T11:01:05.956Z,15.00
2022-12-01T11:03:59.586Z,14.80
2022-12-01T11:06:48.774Z,15.60
2022-12-01T11:09:35.374Z,15.40
2022-12-01T11:12:22.539Z,14.70
2022-12-01T11:15:18.441Z,16.00
2022-12-01T11:18:25.343Z,15.10
2022-12-01T11:21:14.204Z,14.40
2022-12-01T11:24:01.218Z,15.20
2022-12-01T11:26:48.008Z,13.80
2022-12-01T11:29:36.285Z,13.00
2022-12-01T11:32:30.533Z,15.00
2022-12-01T11:35:19.725Z,15.50
2022-12-01T11:38:28.757Z,7.40
2022-12-01T11:41:28.721Z,11.10
2022-12-01T11:47:27.790Z,12.90
2022-12-01T11:50:25.731Z,11.90
2022-12-01T11:53:27.107Z,11.90
2022-12-01T11:56:24.432Z,12.40
2022-12-01T11:59:24.698Z,10.30
2022-12-01T12:02:23.217Z,8.60
2022-12-01T12:05:34.718Z,8.70
2022-12-01T12:08:50.628Z,9.70
2022-12-01T12:11:44.594Z,10.90
2022-12-01T12:14:56.949Z,11.00
2022-12-01T12:17:43.427Z,9.90
2022-12-01T12:20:49.122Z,11.10
2022-12-01T12:23:41.141Z,8.30
2022-12-01T12:26:39.358Z,8.90
2022-12-01T12:29:52.177Z,9.30
2022-12-01T12:32:44.679Z,8.20
2022-12-01T12:35:45.828Z,8.50
2022-12-01T12:38:50.968Z,7.80
2022-12-01T12:41:48.742Z,7.60
2022-12-01T12:44:48.278Z,9.20
2022-12-01T12:47:42.334Z,9.00
2022-12-01T12:50:50.948Z,7.50
2022-12-01T12:53:45.506Z,7.60
2022-12-01T12:56:32.135Z,8.50
2022-12-01T12:59:25.343Z,10.20
2022-12-01T13:02:31.202Z,10.20
2022-12-01T13:05:24.018Z,10.30
2022-12-01T13:08:17.335Z,10.30
2022-12-01T13:11:24.875Z,9.10
2022-12-01T13:14:25.206Z,10.10
2022-12-01T13:17:14.622Z,8.50
2022-12-01T13:20:01.661Z,9.80
2022-12-01T13:22:48.212Z,10.70
2022-12-01T13:25:38.493Z,9.40
2022-12-01T13:28:41.005Z,7.10
2022-12-01T13:31:27.398Z,7.40
2022-12-01T13:34:29.943Z,9.90
2022-12-01T13:37:16.387Z,8.30
2022-12-01T13:40:16.534Z,9.80
2022-12-01T13:43:10.538Z,10.20
2022-12-01T13:45:57.739Z,10.70
2022-12-01T13:48:47.096Z,8.70
2022-12-01T13:52:21.579Z,10.70
2022-12-01T13:55:08.375Z,9.10
2022-12-01T13:57:58.267Z,9.60
2022-12-01T14:00:45.477Z,10.60
2022-12-01T14:03:33.686Z,9.80
2022-12-01T14:06:28.089Z,10.60
2022-12-01T14:09:24.155Z,11.10
2022-12-01T14:12:10.962Z,11.30
2022-12-01T14:15:00.270Z,10.40
2022-12-01T14:17:46.989Z,11.70
2022-12-01T14:20:43.665Z,10.30
2022-12-01T14:26:24.033Z,9.00
2022-12-01T14:29:43.273Z,10.40
2022-12-01T14:32:29.748Z,8.70
2022-12-01T14:35:16.290Z,7.30
2022-12-01T14:38:03.121Z,9.70
2022-12-01T14:40:49.406Z,9.90
2022-12-01T14:43:54.850Z,9.40
2022-12-01T14:46:54.567Z,9.90
2022-12-01T14:49:44.168Z,8.20
2022-12-01T14:52:35.970Z,9.40
2022-12-01T14:55:33.230Z,8.00
2022-12-01T14:58:30.459Z,10.80
2022-12-01T15:01:17.263Z,10.40
2022-12-01T15:04:05.455Z,8.30
2022-12-01T15:06:56.350Z,9.90
2022-12-01T15:09:59.203Z,11.90
2022-12-01T15:12:46.454Z,11.90
2022-12-01T15:15:33.037Z,11.50
2022-12-01T15:18:31.394Z,12.00
2022-12-01T15:21:28.952Z,11.80
2022-12-01T15:24:24.238Z,9.90
2022-12-01T15:27:28.243Z,12.40
2022-12-01T15:30:15.367Z,11.30
2022-12-01T15:33:01.796Z,7.60
2022-12-01T15:35:49.449Z,9.00
2022-12-01T15:38:36.821Z,9.30
2022-12-01T15:41:30.829Z,9.40
2022-12-01T15:44:27.957Z,8.70
2022-12-01T15:47:46.202Z,10.00
2022-12-01T15:50:42.903Z,9.20
2022-12-01T15:53:34.523Z,9.80
2022-12-01T15:56:32.242Z,10.00
2022-12-01T15:59:35.425Z,10.60
2022-12-01T16:02:30.469Z,10.00
2022-12-01T16:05:18.921Z,9.50
2022-12-01T16:08:19.322Z,11.20
2022-12-01T16:11:12.834Z,9.20
2022-12-01T16:14:24.981Z,10.40
2022-12-01T16:17:11.441Z,10.10
2022-12-01T16:20:26.557Z,9.70
2022-12-01T16:23:19.054Z,9.30
2022-12-01T16:26:07.880Z,9.30
2022-12-01T16:28:55.383Z,10.70
2022-12-01T16:31:58.672Z,11.00
2022-12-01T16:34:50.202Z,10.80
2022-12-01T16:37:36.710Z,11.40
2022-12-01T16:40:23.514Z,11.70
2022-12-01T16:43:29.002Z,11.40
2022-12-01T16:46:15.793Z,10.90
2022-12-01T16:49:02.585Z,10.80
2022-12-01T16:51:55.946Z,9.90
2022-12-01T16:54:43.421Z,9.30
2022-12-01T16:57:30.170Z,10.10
2022-12-01T17:00:17.717Z,9.40
2022-12-01T17:03:05.132Z,10.50
2022-12-01T17:05:52.422Z,9.30
2022-12-01T17:08:39.270Z,10.80
2022-12-01T17:11:26.079Z,10.60
2022-12-01T17:14:12.887Z,10.70
2022-12-01T17:16:59.701Z,10.70
2022-12-01T17:19:46.223Z,11.30
2022-12-01T17:22:33.335Z,12.70
2022-12-01T17:25:20.241Z,10.70
2022-12-01T17:28:06.807Z,10.80
2022-12-01T17:30:53.703Z,7.80
2022-12-01T17:33:40.690Z,9.90
2022-12-01T17:36:27.044Z,9.20
2022-12-01T17:39:13.553Z,6.60
2022-12-01T17:42:00.097Z,10.50
2022-12-01T17:44:46.933Z,9.50
2022-12-01T17:47:33.651Z,8.60
2022-12-01T17:50:20.114Z,9.50
2022-12-01T17:53:07.127Z,9.20
2022-12-01T17:55:53.914Z,9.90
2022-12-01T17:58:41.150Z,9.50
2022-12-01T18:01:30.379Z,8.50
2022-12-01T18:04:17.433Z,6.00
2022-12-01T18:07:03.913Z,8.50
2022-12-01T18:09:50.699Z,8.10
2022-12-01T18:12:37.557Z,7.60
2022-12-01T18:15:27.326Z,8.70
2022-12-01T18:18:17.223Z,8.20
2022-12-01T18:21:07.821Z,7.80
2022-12-01T18:23:57.123Z,7.10
2022-12-01T18:26:57.725Z,7.00
2022-12-01T18:29:44.210Z,6.80
2022-12-01T18:32:31.139Z,6.50
2022-12-01T18:35:17.749Z,7.10
2022-12-01T18:38:04.454Z,5.60
2022-12-01T18:40:50.856Z,4.00
2022-12-01T18:43:37.559Z,6.50
2022-12-01T18:46:24.115Z,4.80
2022-12-01T18:49:11.082Z,4.80
2022-12-01T18:51:59.945Z,7.00
2022-12-01T18:54:46.762Z,4.90
2022-12-01T18:57:33.361Z,6.80
2022-12-01T19:00:21.093Z,6.10
2022-12-01T19:03:07.896Z,5.10
2022-12-01T19:05:54.482Z,5.00
2022-12-01T19:08:41.244Z,5.40
2022-12-01T19:11:28.831Z,6.00
2022-12-01T19:14:17.457Z,6.40
2022-12-01T19:17:04.417Z,5.40
2022-12-01T19:19:51.226Z,3.30
2022-12-01T19:22:38.342Z,5.40
2022-12-01T19:25:25.053Z,6.60
2022-12-01T19:28:11.883Z,7.20
2022-12-01T19:30:58.863Z,4.40
2022-12-01T19:33:46.321Z,2.80
2022-12-01T19:36:32.730Z,5.70
2022-12-01T19:39:20.134Z,7.10
2022-12-01T19:42:07.014Z,6.80
2022-12-01T19:44:53.423Z,7.10
2022-12-01T19:47:39.893Z,6.30
2022-12-01T19:50:26.356Z,9.40
2022-12-01T19:53:13.130Z,9.80
2022-12-01T19:56:04.197Z,8.00
2022-12-01T19:58:50.888Z,7.30
2022-12-01T20:01:37.767Z,7.40
2022-12-01T20:04:24.904Z,7.70
2022-12-01T20:07:11.269Z,8.20
2022-12-01T20:09:57.912Z,8.20
2022-12-01T20:12:44.779Z,9.50
2022-12-01T20:15:33.534Z,8.50
2022-12-01T20:18:19.884Z,9.00
2022-12-01T20:21:08.885Z,8.50
2022-12-01T20:24:00.376Z,8.30
2022-12-01T20:26:52.095Z,6.90
2022-12-01T20:29:39.274Z,7.90
2022-12-01T20:32:26.565Z,7.90
2022-12-01T20:35:13.853Z,7.40
2022-12-01T20:38:00.358Z,7.70
2022-12-01T20:40:50.112Z,9.10
2022-12-01T20:43:37.076Z,9.00
2022-12-01T20:46:23.805Z,6.10
2022-12-01T20:49:10.770Z,7.00
2022-12-01T20:51:57.589Z,6.60
2022-12-01T20:54:44.909Z,6.60
2022-12-01T20:57:31.616Z,6.90
2022-12-01T21:00:18.945Z,5.70
2022-12-01T21:03:05.458Z,4.10
2022-12-01T21:05:51.945Z,5.50
2022-12-01T21:08:39.633Z,3.60
2022-12-01T21:12:05.706Z,5.10
2022-12-01T21:15:14.446Z,7.00
2022-12-01T21:18:04.823Z,7.30
2022-12-01T21:20:55.232Z,7.40
2022-12-01T21:23:41.931Z,8.30
2022-12-01T21:26:28.843Z,7.70
2022-12-01T21:29:25.292Z,8.10
2022-12-01T21:32:14.833Z,9.30
2022-12-01T21:35:08.644Z,9.00
2022-12-01T21:38:00.600Z,9.90
2022-12-01T21:40:47.579Z,10.00
2022-12-01T21:43:38.286Z,8.80
2022-12-01T21:46:25.556Z,9.80
2022-12-01T21:49:22.017Z,9.20
2022-12-01T21:52:38.109Z,8.40
2022-12-01T21:55:24.561Z,8.50
2022-12-01T21:58:24.765Z,9.10
2022-12-01T22:01:20.904Z,10.40
2022-12-01T22:04:16.915Z,9.80
2022-12-01T22:07:05.098Z,9.00
2022-12-01T22:09:51.570Z,8.90
2022-12-01T22:12:38.167Z,8.20
2022-12-01T22:15:45.175Z,8.70
2022-12-01T22:18:38.310Z,9.30
2022-12-01T22:21:27.169Z,9.90
2022-12-01T22:24:23.914Z,11.20
2022-12-01T22:27:26.336Z,10.60
2022-12-01T22:30:20.693Z,7.80
2022-12-01T22:33:14.570Z,9.40
2022-12-01T22:36:01.159Z,10.00
2022-12-01T22:38:47.899Z,9.50
2022-12-01T22:41:34.431Z,8.60
2022-12-01T22:44:21.140Z,6.30
2022-12-01T22:47:08.610Z,8.40
2022-12-01T22:49:55.623Z,7.60
2022-12-01T22:52:42.121Z,7.80
2022-12-01T22:55:28.938Z,8.10
2022-12-01T22:58:29.230Z,9.90
2022-12-01T23:01:37.252Z,7.80
2022-12-01T23:04:34.527Z,7.20
2022-12-01T23:07:28.880Z,11.00
2022-12-01T23:10:17.569Z,9.70
2022-12-01T23:13:15.471Z,9.30
2022-12-01T23:16:02.397Z,10.50
2022-12-01T23:18:49.022Z,9.10
2022-12-01T23:21:36.126Z,12.40
2022-12-01T23:24:22.916Z,9.30
2022-12-01T23:27:09.597Z,7.00
2022-12-01T23:29:56.509Z,10.30
2022-12-01T23:32:56.331Z,12.20
2022-12-01T23:36:15.084Z,10.70
2022-12-01T23:39:02.918Z,10.50
2022-12-01T23:41:50.345Z,9.90
2022-12-01T23:44:42.172Z,10.70
2022-12-01T23:47:28.979Z,12.10
2022-12-01T23:50:21.215Z,7.90
2022-12-01T23:53:40.006Z,7.40
2022-12-01T23:56:27.886Z,10.80
2022-12-01T23:59:14.575Z,10.00
